Time;durP1;ratioP1;P1;durP2;ratioP2;P2;SDS_P1;SDS_P2;PMS_P1;PMS_P2;Temp;Humidity;BMP_temperature;BMP_pressure;BME280_temperature;BME280_humidity;BME280_pressure;Samples;Min_cycle;Max_cycle;Signal;HPM_P1;HPM_P2
2021/08/28 00:00:27;;;;;;;7.43;4.10;;;14.90;99.90;;;;;;5115956;28;20039;-91
2021/08/28 00:02:53;;;;;;;5.22;3.85;;;14.90;99.90;;;;;;5107933;28;20032;-92
2021/08/28 00:05:18;;;;;;;4.47;3.55;;;14.90;99.90;;;;;;5104027;28;20298;-92
2021/08/28 00:07:44;;;;;;;6.95;3.70;;;14.80;99.90;;;;;;5106268;28;20131;-91
2021/08/28 00:10:10;;;;;;;4.75;3.55;;;14.80;99.90;;;;;;5099802;28;20032;-91
2021/08/28 00:12:36;;;;;;;5.13;4.03;;;14.80;99.90;;;;;;5117121;28;20054;-92
2021/08/28 00:15:03;;;;;;;8.50;3.95;;;14.70;99.90;;;;;;5103010;28;20032;-92
2021/08/28 00:17:33;;;;;;;9.18;4.30;;;14.70;99.90;;;;;;5078727;28;20036;-92
2021/08/28 00:20:07;;;;;;;8.25;3.92;;;14.70;99.90;;;;;;5081013;28;20420;-92
2021/08/28 00:22:36;;;;;;;10.13;4.28;;;14.70;99.90;;;;;;5105120;28;20067;-92
2021/08/28 00:25:03;;;;;;;6.63;4.53;;;14.70;99.90;;;;;;5086165;28;20041;-91
2021/08/28 00:27:28;;;;;;;14.55;4.93;;;14.60;99.90;;;;;;5094200;28;20046;-93
2021/08/28 00:29:54;;;;;;;6.60;3.60;;;14.60;99.90;;;;;;5111233;28;20044;-92
2021/08/28 00:32:23;;;;;;;7.82;4.53;;;14.60;99.90;;;;;;5127435;28;20047;-91
2021/08/28 00:34:48;;;;;;;5.70;3.80;;;14.60;99.90;;;;;;5113929;28;20044;-91
2021/08/28 00:37:14;;;;;;;5.45;4.38;;;14.60;99.90;;;;;;5105718;28;20522;-90
2021/08/28 00:39:39;;;;;;;7.40;4.43;;;14.60;99.90;;;;;;5119183;28;20389;-91
2021/08/28 00:42:05;;;;;;;9.25;4.25;;;14.60;99.90;;;;;;5118605;28;20038;-91
2021/08/28 00:44:30;;;;;;;6.40;4.43;;;14.60;99.90;;;;;;5115298;28;20028;-91
2021/08/28 00:46:57;;;;;;;7.63;4.68;;;14.60;99.90;;;;;;5084109;28;20371;-93
2021/08/28 00:49:23;;;;;;;7.40;3.72;;;14.60;99.90;;;;;;5079680;28;20083;-92
2021/08/28 00:51:49;;;;;;;6.07;4.28;;;14.50;99.90;;;;;;5081647;28;20135;-93
2021/08/28 00:54:15;;;;;;;7.57;4.03;;;14.50;99.90;;;;;;5101899;28;20067;-91
2021/08/28 00:56:43;;;;;;;9.52;4.28;;;14.50;99.90;;;;;;5109582;28;20028;-93
2021/08/28 00:59:14;;;;;;;5.03;3.72;;;14.50;99.90;;;;;;5085251;28;20042;-94
2021/08/28 01:01:42;;;;;;;11.68;3.88;;;14.50;99.90;;;;;;5081610;28;20463;-92
2021/08/28 01:04:15;;;;;;;8.10;4.78;;;14.50;99.90;;;;;;5087256;28;20036;-92
2021/08/28 01:06:48;;;;;;;7.18;4.13;;;14.50;99.90;;;;;;5119458;28;20052;-93
2021/08/28 01:09:21;;;;;;;7.60;3.25;;;14.50;99.90;;;;;;5100151;28;20040;-91
2021/08/28 01:11:58;;;;;;;7.03;3.83;;;14.50;99.90;;;;;;5100116;28;20128;-92
2021/08/28 01:14:34;;;;;;;10.07;3.63;;;14.50;99.90;;;;;;5120271;28;20117;-93
2021/08/28 01:17:07;;;;;;;8.95;4.05;;;14.50;99.90;;;;;;5082453;28;20051;-95
2021/08/28 01:19:36;;;;;;;5.95;3.72;;;14.50;99.90;;;;;;5087598;28;20040;-94
2021/08/28 01:22:12;;;;;;;6.78;3.78;;;14.40;99.90;;;;;;5097555;28;20046;-93
2021/08/28 01:24:54;;;;;;;9.57;4.10;;;14.40;99.90;;;;;;5113631;28;20461;-93
2021/08/28 01:28:00;;;;;;;8.48;3.67;;;14.40;99.90;;;;;;5122786;28;20434;-93
2021/08/28 01:30:56;;;;;;;5.82;3.75;;;14.40;99.90;;;;;;5081599;28;20028;-93
2021/08/28 01:33:35;;;;;;;7.78;3.55;;;14.40;99.90;;;;;;5099054;28;20048;-93
2021/08/28 01:36:12;;;;;;;7.63;3.67;;;14.30;99.90;;;;;;5107507;28;20044;-92
2021/08/28 01:39:04;;;;;;;12.93;4.68;;;14.30;99.90;;;;;;5108438;28;20058;-93
2021/08/28 01:41:54;;;;;;;8.13;3.60;;;14.30;99.90;;;;;;5105402;28;20096;-93
2021/08/28 01:44:21;;;;;;;5.95;3.72;;;14.30;99.90;;;;;;5119660;28;20023;-92
2021/08/28 01:46:50;;;;;;;8.68;3.50;;;14.30;99.90;;;;;;5109641;28;20040;-92
2021/08/28 01:49:17;;;;;;;6.20;3.38;;;14.30;99.90;;;;;;5112809;28;20042;-92
2021/08/28 01:51:45;;;;;;;8.10;3.55;;;14.30;99.90;;;;;;5094075;28;20032;-93
2021/08/28 01:54:11;;;;;;;9.95;3.85;;;14.30;99.90;;;;;;5084524;28;20090;-91
2021/08/28 01:56:39;;;;;;;8.20;3.55;;;14.30;99.90;;;;;;5100786;28;20039;-92
2021/08/28 01:59:05;;;;;;;4.47;3.72;;;14.30;99.90;;;;;;5111470;28;20071;-91
2021/08/28 02:01:31;;;;;;;9.15;3.38;;;14.30;99.90;;;;;;5107794;28;20031;-92
2021/08/28 02:04:14;;;;;;;5.85;3.35;;;14.30;99.90;;;;;;5100538;28;20039;-93
2021/08/28 02:06:54;;;;;;;8.10;3.75;;;14.30;99.90;;;;;;5105818;28;20041;-92
2021/08/28 02:09:37;;;;;;;7.15;3.88;;;14.30;99.90;;;;;;5100678;28;20039;-92
2021/08/28 02:12:17;;;;;;;4.82;3.13;;;14.30;99.90;;;;;;5100930;28;20301;-93
2021/08/28 02:15:16;;;;;;;9.27;3.40;;;14.30;99.90;;;;;;5108032;28;20309;-93
2021/08/28 02:17:57;;;;;;;4.95;3.30;;;14.40;99.90;;;;;;5114169;28;20032;-93
2021/08/28 02:20:29;;;;;;;5.70;3.33;;;14.40;99.90;;;;;;5104592;28;20167;-92
2021/08/28 02:22:59;;;;;;;6.05;3.70;;;14.40;99.90;;;;;;5107714;28;20036;-92
2021/08/28 02:25:29;;;;;;;8.95;3.85;;;14.30;99.90;;;;;;5100553;28;20062;-92
2021/08/28 02:28:03;;;;;;;9.25;4.10;;;14.40;99.90;;;;;;5085876;28;20286;-93
2021/08/28 02:30:31;;;;;;;11.55;3.83;;;14.30;99.90;;;;;;5080706;28;20127;-93
2021/08/28 02:32:57;;;;;;;5.57;4.13;;;14.30;99.90;;;;;;5088128;28;20100;-92
2021/08/28 02:35:26;;;;;;;5.05;3.78;;;14.30;99.90;;;;;;5101317;28;20033;-92
2021/08/28 02:37:52;;;;;;;4.93;3.95;;;14.30;99.90;;;;;;5099207;28;20039;-92
2021/08/28 02:40:22;;;;;;;4.80;3.70;;;14.30;99.90;;;;;;5122091;28;20028;-93
2021/08/28 02:42:48;;;;;;;11.13;3.80;;;14.30;99.90;;;;;;5104035;28;20055;-91
2021/08/28 02:45:16;;;;;;;10.73;3.97;;;14.30;99.90;;;;;;5122841;28;20081;-92
2021/08/28 02:48:24;;;;;;;5.28;3.58;;;14.30;99.90;;;;;;5133489;28;20043;-90
2021/08/28 02:50:52;;;;;;;6.05;3.75;;;14.30;99.90;;;;;;5103883;28;20108;-91
2021/08/28 02:53:20;;;;;;;7.10;4.30;;;14.30;99.90;;;;;;5109671;28;20086;-92
2021/08/28 02:55:50;;;;;;;6.68;4.32;;;14.20;99.90;;;;;;5091418;28;20039;-93
2021/08/28 02:58:16;;;;;;;6.78;4.20;;;14.20;99.90;;;;;;5124108;28;20091;-94
2021/08/28 03:00:48;;;;;;;6.90;4.15;;;14.20;99.90;;;;;;5111576;28;20036;-92
2021/08/28 03:03:15;;;;;;;7.43;3.33;;;14.20;99.90;;;;;;5098331;28;20394;-92
2021/08/28 03:05:41;;;;;;;5.05;3.97;;;14.20;99.90;;;;;;5091163;28;20543;-93
2021/08/28 03:08:07;;;;;;;4.93;3.95;;;14.10;99.90;;;;;;5089013;28;20040;-92
2021/08/28 03:10:33;;;;;;;4.35;3.88;;;14.10;99.90;;;;;;5099764;28;20064;-92
2021/08/28 03:12:59;;;;;;;4.43;3.60;;;14.10;99.90;;;;;;5088662;28;21755;-92
2021/08/28 03:15:29;;;;;;;6.32;3.90;;;14.20;99.90;;;;;;5088839;28;20342;-94
2021/08/28 03:17:55;;;;;;;5.43;3.40;;;14.20;99.90;;;;;;5099988;28;20035;-91
2021/08/28 03:20:22;;;;;;;4.78;3.75;;;14.20;99.90;;;;;;5099946;28;20065;-93
2021/08/28 03:22:50;;;;;;;5.47;3.58;;;14.30;99.90;;;;;;5085223;28;20044;-94
2021/08/28 03:25:17;;;;;;;6.95;4.03;;;14.20;99.90;;;;;;5088822;28;20032;-92
2021/08/28 03:27:43;;;;;;;9.98;4.32;;;14.30;99.90;;;;;;5099588;28;20044;-92
2021/08/28 03:30:14;;;;;;;4.05;3.65;;;14.30;99.90;;;;;;5087005;28;20031;-91
2021/08/28 03:32:43;;;;;;;5.38;4.18;;;14.30;99.90;;;;;;5106195;28;20040;-92
2021/08/28 03:35:13;;;;;;;6.35;4.28;;;14.30;99.90;;;;;;5113563;28;20032;-93
2021/08/28 03:37:39;;;;;;;8.82;4.53;;;14.30;99.90;;;;;;5100596;28;20042;-94
2021/08/28 03:40:10;;;;;;;4.75;3.97;;;14.30;99.90;;;;;;5098703;28;20036;-91
2021/08/28 03:42:41;;;;;;;7.57;4.00;;;14.30;99.90;;;;;;5090324;28;20040;-92
2021/08/28 03:45:45;;;;;;;4.28;3.88;;;14.20;99.90;;;;;;5096093;28;20101;-92
2021/08/28 03:48:12;;;;;;;4.47;4.07;;;14.20;99.90;;;;;;5095594;28;20086;-90
2021/08/28 03:50:37;;;;;;;5.20;3.60;;;14.20;99.90;;;;;;5083557;28;20044;-92
2021/08/28 03:53:03;;;;;;;6.72;4.32;;;14.20;99.90;;;;;;5084033;28;21764;-92
2021/08/28 03:55:29;;;;;;;6.55;4.32;;;14.30;99.90;;;;;;5099869;28;20037;-93
2021/08/28 03:57:54;;;;;;;7.13;4.35;;;14.30;99.90;;;;;;5101214;28;21696;-92
2021/08/28 04:00:20;;;;;;;5.03;4.53;;;14.30;99.90;;;;;;5089192;28;20419;-92
2021/08/28 04:02:45;;;;;;;5.03;4.32;;;14.30;99.90;;;;;;5085340;28;20035;-92
2021/08/28 04:05:11;;;;;;;7.45;4.38;;;14.20;99.90;;;;;;5086832;28;20109;-91
2021/08/28 04:07:38;;;;;;;5.25;4.53;;;14.20;99.90;;;;;;5114690;28;20183;-92
2021/08/28 04:10:05;;;;;;;8.30;4.25;;;14.20;99.90;;;;;;5106050;28;20035;-91
2021/08/28 04:12:31;;;;;;;5.93;4.25;;;14.20;99.90;;;;;;5091503;28;20080;-93
2021/08/28 04:14:57;;;;;;;5.07;4.57;;;14.20;99.90;;;;;;5089877;28;20031;-92
2021/08/28 04:17:22;;;;;;;5.05;4.10;;;14.20;99.90;;;;;;5092416;28;20433;-91
2021/08/28 04:19:56;;;;;;;4.97;4.50;;;14.20;99.90;;;;;;5098325;28;20036;-92
2021/08/28 04:22:22;;;;;;;5.72;4.70;;;14.20;99.90;;;;;;5092616;28;20290;-91
2021/08/28 04:24:47;;;;;;;5.40;4.90;;;14.20;99.90;;;;;;5100574;28;20051;-92
2021/08/28 04:27:13;;;;;;;8.45;5.50;;;14.20;99.90;;;;;;5121126;28;20046;-91
2021/08/28 04:29:39;;;;;;;8.57;5.18;;;14.20;99.90;;;;;;5134912;28;20085;-91
2021/08/28 04:32:04;;;;;;;6.95;5.38;;;14.20;99.90;;;;;;5131720;28;20398;-91
2021/08/28 04:34:30;;;;;;;6.43;5.78;;;14.20;99.90;;;;;;5088123;28;20036;-92
2021/08/28 04:36:56;;;;;;;6.03;5.53;;;14.20;99.90;;;;;;5089695;28;20270;-92
2021/08/28 04:39:27;;;;;;;6.47;5.80;;;14.20;99.90;;;;;;5123325;28;20119;-93
2021/08/28 04:41:52;;;;;;;7.28;6.00;;;14.30;99.90;;;;;;5114145;28;20040;-93
2021/08/28 04:44:21;;;;;;;7.15;5.45;;;14.20;99.90;;;;;;5095774;28;20046;-93
2021/08/28 04:46:47;;;;;;;6.68;5.97;;;14.20;99.90;;;;;;5110898;28;20138;-92
2021/08/28 04:49:13;;;;;;;6.93;6.22;;;14.30;99.90;;;;;;5123449;28;20075;-92
2021/08/28 04:51:41;;;;;;;12.20;6.63;;;14.30;99.90;;;;;;5112136;28;20040;-94
2021/08/28 04:54:16;;;;;;;9.10;6.38;;;14.30;99.90;;;;;;5082191;28;20033;-94
2021/08/28 04:56:42;;;;;;;9.00;7.05;;;14.30;99.90;;;;;;5103720;28;20032;-93
2021/08/28 04:59:08;;;;;;;8.95;7.07;;;14.30;99.90;;;;;;5122914;28;20297;-92
2021/08/28 05:01:33;;;;;;;7.72;6.93;;;14.30;99.90;;;;;;5122735;28;20064;-93
2021/08/28 05:03:59;;;;;;;8.27;6.78;;;14.30;99.90;;;;;;5135953;28;20034;-93
2021/08/28 05:06:25;;;;;;;8.18;7.28;;;14.30;99.90;;;;;;5123240;28;20061;-92
2021/08/28 05:08:53;;;;;;;8.15;6.63;;;14.30;99.90;;;;;;5113277;28;20118;-92
2021/08/28 05:11:19;;;;;;;9.10;6.88;;;14.30;99.90;;;;;;5105731;28;20461;-93
2021/08/28 05:13:45;;;;;;;9.38;6.57;;;14.30;99.90;;;;;;5124104;28;20047;-90
2021/08/28 05:16:11;;;;;;;8.23;7.32;;;14.40;99.90;;;;;;5111600;28;20328;-90
2021/08/28 05:18:37;;;;;;;8.40;7.47;;;14.40;99.90;;;;;;5108002;28;20424;-93
2021/08/28 05:21:03;;;;;;;11.77;7.43;;;14.40;99.90;;;;;;5102076;28;20032;-93
2021/08/28 05:23:28;;;;;;;8.23;6.90;;;14.40;99.90;;;;;;5102212;28;20077;-93
2021/08/28 05:25:59;;;;;;;8.63;7.28;;;14.50;99.90;;;;;;5104517;28;20051;-92
2021/08/28 05:28:25;;;;;;;11.18;7.78;;;14.50;99.90;;;;;;5098695;28;20124;-91
2021/08/28 05:30:51;;;;;;;10.32;6.75;;;14.50;99.90;;;;;;5109187;28;20446;-90
2021/08/28 05:33:17;;;;;;;9.80;6.80;;;14.50;99.90;;;;;;5102966;28;20039;-90
2021/08/28 05:35:48;;;;;;;7.78;6.30;;;14.50;99.90;;;;;;5100378;28;20360;-91
2021/08/28 05:38:14;;;;;;;9.48;6.97;;;14.50;99.90;;;;;;5091229;28;20040;-91
2021/08/28 05:40:39;;;;;;;8.15;6.88;;;14.50;99.90;;;;;;5099819;28;20072;-92
2021/08/28 05:43:05;;;;;;;9.18;6.93;;;14.50;99.90;;;;;;5115384;28;20104;-93
2021/08/28 05:45:31;;;;;;;10.07;7.20;;;14.50;99.90;;;;;;5110463;28;20040;-90
2021/08/28 05:47:59;;;;;;;13.85;8.02;;;14.50;99.90;;;;;;5109032;28;20032;-93
2021/08/28 05:50:43;;;;;;;10.52;7.53;;;14.60;99.90;;;;;;5085151;28;20041;-91
2021/08/28 05:53:09;;;;;;;10.77;7.57;;;14.60;99.90;;;;;;5101039;28;20103;-92
2021/08/28 05:55:34;;;;;;;10.43;7.50;;;14.60;99.90;;;;;;5099976;28;20032;-91
2021/08/28 05:58:00;;;;;;;11.80;8.50;;;14.60;99.90;;;;;;5115195;28;20027;-90
2021/08/28 06:00:28;;;;;;;11.18;8.45;;;14.60;99.90;;;;;;5109020;28;20036;-92
2021/08/28 06:02:53;;;;;;;12.85;9.38;;;14.60;99.90;;;;;;5103217;28;20036;-91
2021/08/28 06:05:21;;;;;;;11.52;9.38;;;14.60;99.90;;;;;;5110610;28;20371;-94
2021/08/28 06:07:51;;;;;;;13.80;8.48;;;14.60;99.90;;;;;;5128588;27;20039;-92
2021/08/28 06:10:17;;;;;;;13.65;9.13;;;14.60;99.90;;;;;;5089509;28;20047;-94
2021/08/28 06:12:45;;;;;;;11.82;9.85;;;14.60;99.90;;;;;;5088849;28;20044;-92
2021/08/28 06:15:30;;;;;;;11.52;8.60;;;14.60;99.90;;;;;;5113266;28;20054;-92
2021/08/28 06:18:03;;;;;;;14.38;8.98;;;14.60;99.90;;;;;;5106514;28;20123;-93
2021/08/28 06:21:02;;;;;;;10.82;8.90;;;14.50;99.90;;;;;;5085503;28;20032;-95
2021/08/28 06:23:30;;;;;;;11.02;8.38;;;14.50;99.90;;;;;;5102885;28;20040;-92
2021/08/28 06:25:56;;;;;;;12.27;9.35;;;14.50;99.90;;;;;;5115562;28;20044;-92
2021/08/28 06:28:22;;;;;;;11.68;9.07;;;14.50;99.90;;;;;;5090630;28;20101;-92
2021/08/28 06:30:48;;;;;;;12.63;9.10;;;14.50;99.90;;;;;;5100435;28;20048;-92
2021/08/28 06:33:13;;;;;;;13.20;9.90;;;14.60;99.90;;;;;;5110065;28;20045;-91
2021/08/28 06:35:39;;;;;;;12.65;10.27;;;14.60;99.90;;;;;;5088717;28;20040;-92
2021/08/28 06:38:04;;;;;;;13.38;9.95;;;14.60;99.90;;;;;;5099253;28;20399;-93
2021/08/28 06:40:30;;;;;;;18.33;10.90;;;14.70;99.90;;;;;;5101318;28;20031;-91
2021/08/28 06:43:00;;;;;;;13.68;9.45;;;14.70;99.90;;;;;;5095695;28;20054;-93
2021/08/28 06:45:26;;;;;;;12.57;9.75;;;14.70;99.90;;;;;;5100438;28;20070;-91
2021/08/28 06:47:51;;;;;;;11.93;9.05;;;14.70;99.90;;;;;;5104465;28;20021;-92
2021/08/28 06:50:55;;;;;;;10.85;9.68;;;14.70;99.90;;;;;;5111642;28;20032;-92
2021/08/28 06:53:20;;;;;;;12.95;9.75;;;14.70;99.90;;;;;;5095742;28;20044;-93
2021/08/28 06:55:46;;;;;;;10.63;9.27;;;14.80;99.90;;;;;;5134189;27;20032;-93
2021/08/28 06:58:12;;;;;;;12.25;9.93;;;14.80;99.90;;;;;;5115499;28;20061;-93
2021/08/28 07:00:37;;;;;;;9.98;8.75;;;14.80;99.90;;;;;;5093516;28;20040;-92
2021/08/28 07:03:04;;;;;;;10.27;9.15;;;14.90;99.90;;;;;;5104869;28;20048;-93
2021/08/28 07:05:29;;;;;;;8.48;7.38;;;14.90;99.90;;;;;;5091729;28;20036;-93
2021/08/28 07:07:55;;;;;;;8.85;6.57;;;15.00;99.90;;;;;;5087600;28;20047;-92
2021/08/28 07:10:21;;;;;;;5.75;5.10;;;15.00;99.90;;;;;;5099932;28;20040;-93
2021/08/28 07:12:49;;;;;;;6.70;5.15;;;15.00;99.90;;;;;;5078907;28;20044;-92
2021/08/28 07:15:14;;;;;;;6.07;5.00;;;15.00;99.90;;;;;;5098665;28;20043;-92
2021/08/28 07:17:48;;;;;;;4.40;4.00;;;15.00;99.90;;;;;;5112591;28;20032;-92
2021/08/28 07:20:33;;;;;;;6.10;5.05;;;15.00;99.90;;;;;;5120251;28;20039;-92
2021/08/28 07:22:58;;;;;;;4.82;4.38;;;15.10;99.90;;;;;;5124616;28;20111;-92
2021/08/28 07:25:24;;;;;;;5.57;5.00;;;15.20;99.90;;;;;;5103402;28;20075;-90
2021/08/28 07:27:49;;;;;;;5.85;5.22;;;15.20;99.90;;;;;;5086161;28;20037;-90
2021/08/28 07:30:27;;;;;;;9.40;5.90;;;15.20;99.90;;;;;;5095308;28;20401;-92
2021/08/28 07:32:53;;;;;;;6.47;5.80;;;15.20;99.90;;;;;;5099698;28;20052;-91
2021/08/28 07:35:18;;;;;;;8.48;7.18;;;15.30;99.90;;;;;;5114893;28;20447;-90
2021/08/28 07:37:48;;;;;;;10.00;8.75;;;15.30;99.90;;;;;;5119540;28;20039;-89
2021/08/28 07:40:14;;;;;;;9.82;8.30;;;15.30;99.90;;;;;;5120362;28;20031;-91
2021/08/28 07:42:39;;;;;;;10.20;9.10;;;15.30;99.90;;;;;;5104206;28;20052;-91
2021/08/28 07:45:07;;;;;;;12.40;10.02;;;15.40;99.90;;;;;;5097997;28;20044;-92
2021/08/28 07:47:36;;;;;;;13.55;10.65;;;15.30;99.90;;;;;;5094537;28;20119;-91
2021/08/28 07:50:18;;;;;;;14.35;9.73;;;15.40;99.90;;;;;;5098560;28;20036;-91
2021/08/28 07:52:43;;;;;;;14.02;10.90;;;15.40;99.90;;;;;;5098853;28;20044;-91
2021/08/28 07:55:11;;;;;;;11.32;9.80;;;15.40;99.90;;;;;;5090980;28;20042;-91
2021/08/28 07:57:39;;;;;;;10.98;8.98;;;15.40;99.90;;;;;;5094698;28;20041;-93
2021/08/28 08:00:07;;;;;;;10.25;9.25;;;15.40;99.90;;;;;;5100557;28;20099;-92
2021/08/28 08:02:32;;;;;;;8.80;7.90;;;15.50;99.90;;;;;;5098432;28;20032;-93
2021/08/28 08:04:58;;;;;;;9.00;8.05;;;15.60;99.90;;;;;;5086323;28;20117;-92
2021/08/28 08:07:24;;;;;;;8.85;7.32;;;15.60;99.90;;;;;;5098800;28;20074;-92
2021/08/28 08:09:49;;;;;;;8.68;7.25;;;15.70;99.90;;;;;;5098828;28;20058;-93
2021/08/28 08:12:19;;;;;;;7.30;6.57;;;15.80;99.90;;;;;;5104063;28;20074;-92
2021/08/28 08:14:44;;;;;;;9.50;6.47;;;16.00;99.90;;;;;;5078649;28;20041;-90
2021/08/28 08:17:10;;;;;;;6.95;6.28;;;16.00;99.90;;;;;;5093114;28;20032;-93
2021/08/28 08:19:35;;;;;;;6.38;5.78;;;16.20;99.90;;;;;;5097783;28;20067;-93
2021/08/28 08:22:01;;;;;;;6.88;6.28;;;16.20;99.90;;;;;;5096222;28;20032;-92
2021/08/28 08:24:26;;;;;;;6.03;5.30;;;16.20;99.90;;;;;;5090608;28;20085;-91
2021/08/28 08:26:52;;;;;;;5.38;4.88;;;16.20;99.90;;;;;;5096054;28;20036;-91
2021/08/28 08:29:18;;;;;;;7.88;5.90;;;16.20;99.90;;;;;;5078474;28;20381;-93
2021/08/28 08:31:43;;;;;;;6.97;5.22;;;16.30;99.90;;;;;;5108079;28;20043;-91
2021/08/28 08:34:15;;;;;;;6.20;5.47;;;16.40;99.90;;;;;;5116452;28;20457;-93
2021/08/28 08:36:41;;;;;;;4.88;4.47;;;16.40;99.90;;;;;;5106750;28;20042;-92
2021/08/28 08:39:06;;;;;;;6.07;5.45;;;16.40;99.90;;;;;;5092397;28;20609;-91
2021/08/28 08:41:33;;;;;;;7.90;5.15;;;16.50;99.90;;;;;;5092527;28;20124;-92
2021/08/28 08:44:00;;;;;;;7.93;5.43;;;16.50;99.90;;;;;;5098865;28;20043;-90
2021/08/28 08:46:26;;;;;;;5.35;4.78;;;16.50;99.90;;;;;;5097990;28;20044;-91
2021/08/28 08:48:52;;;;;;;6.45;5.50;;;16.60;99.90;;;;;;5097615;28;20061;-93
2021/08/28 08:51:19;;;;;;;8.98;5.82;;;16.60;99.80;;;;;;5098364;28;20040;-92
2021/08/28 08:53:45;;;;;;;6.75;5.72;;;16.50;99.70;;;;;;5090580;28;20307;-91
2021/08/28 08:56:11;;;;;;;5.70;5.10;;;16.50;99.70;;;;;;5104552;28;20032;-92
2021/08/28 08:58:38;;;;;;;5.90;5.28;;;16.50;99.90;;;;;;5105345;28;20044;-91
2021/08/28 09:01:06;;;;;;;6.00;4.85;;;16.40;99.70;;;;;;5095296;28;20039;-91
2021/08/28 09:03:32;;;;;;;5.72;4.95;;;16.40;99.50;;;;;;5101574;28;20040;-93
2021/08/28 09:05:58;;;;;;;7.28;4.30;;;16.30;99.50;;;;;;5109233;28;20624;-90
2021/08/28 09:08:23;;;;;;;5.55;4.32;;;16.20;99.50;;;;;;5107141;28;20103;-90
2021/08/28 09:10:49;;;;;;;5.82;5.32;;;16.30;99.80;;;;;;5090444;28;20075;-92
2021/08/28 09:13:20;;;;;;;5.45;4.68;;;16.30;99.80;;;;;;5084749;28;20051;-93
2021/08/28 09:15:49;;;;;;;5.38;4.88;;;16.30;99.20;;;;;;5083162;28;20028;-92
2021/08/28 09:18:15;;;;;;;6.03;5.05;;;16.30;99.80;;;;;;5097521;28;20035;-92
2021/08/28 09:20:41;;;;;;;6.18;5.07;;;16.30;99.50;;;;;;5090551;28;20062;-91
2021/08/28 09:23:14;;;;;;;5.75;4.93;;;16.40;99.50;;;;;;5103425;28;20436;-91
2021/08/28 09:25:41;;;;;;;5.40;4.90;;;16.40;99.20;;;;;;5092139;28;20614;-90
2021/08/28 09:28:08;;;;;;;5.30;4.80;;;16.40;99.30;;;;;;5092231;28;20051;-93
2021/08/28 09:30:38;;;;;;;7.75;6.30;;;16.40;99.40;;;;;;5105902;28;20039;-93
2021/08/28 09:33:06;;;;;;;5.78;5.10;;;16.50;99.30;;;;;;5109308;28;20132;-91
2021/08/28 09:35:34;;;;;;;9.70;6.20;;;16.50;99.30;;;;;;5094873;28;20036;-92
2021/08/28 09:38:12;;;;;;;7.18;5.47;;;16.60;99.40;;;;;;5086707;28;20048;-92
2021/08/28 09:40:42;;;;;;;5.07;4.57;;;16.60;99.20;;;;;;5091822;28;20027;-91
2021/08/28 09:43:19;;;;;;;4.57;4.03;;;16.70;98.90;;;;;;5090713;28;20052;-92
2021/08/28 09:45:46;;;;;;;4.47;3.83;;;16.80;98.70;;;;;;5097541;28;20043;-91
2021/08/28 09:48:19;;;;;;;5.78;5.10;;;16.90;98.50;;;;;;5087896;28;20032;-93
2021/08/28 09:50:51;;;;;;;4.40;4.00;;;16.90;98.20;;;;;;5101182;28;20428;-93
2021/08/28 09:53:22;;;;;;;9.10;4.07;;;16.80;97.80;;;;;;5117329;28;20393;-91
2021/08/28 09:56:08;;;;;;;4.70;4.22;;;16.80;97.20;;;;;;5097226;28;20095;-90
2021/08/28 09:58:48;;;;;;;4.05;2.70;;;16.70;96.70;;;;;;5101460;28;20055;-92
2021/08/28 10:01:29;;;;;;;2.15;1.95;;;16.70;96.80;;;;;;5101677;28;20036;-92
2021/08/28 10:04:01;;;;;;;1.92;1.63;;;16.70;96.70;;;;;;5099374;28;20040;-86
2021/08/28 10:06:27;;;;;;;2.23;1.50;;;16.80;96.40;;;;;;5097478;28;20040;-86
2021/08/28 10:08:53;;;;;;;1.27;1.08;;;17.00;95.70;;;;;;5101218;28;20692;-86
2021/08/28 10:11:19;;;;;;;1.10;1.00;;;17.20;95.60;;;;;;5085807;28;20074;-88
2021/08/28 10:13:47;;;;;;;1.35;1.08;;;17.30;96.10;;;;;;5086776;28;20071;-87
2021/08/28 10:16:14;;;;;;;1.10;0.90;;;17.50;95.20;;;;;;5100944;28;20036;-86
2021/08/28 10:18:40;;;;;;;1.80;1.20;;;17.60;95.50;;;;;;5089760;28;20036;-89
2021/08/28 10:21:10;;;;;;;1.52;1.42;;;17.80;94.80;;;;;;5102896;28;20394;-89
2021/08/28 10:23:37;;;;;;;2.10;1.80;;;17.90;94.60;;;;;;5088935;28;20048;-87
2021/08/28 10:26:08;;;;;;;1.73;1.25;;;17.90;95.40;;;;;;5097018;28;20127;-87
2021/08/28 10:28:43;;;;;;;1.95;1.70;;;18.10;95.00;;;;;;5092720;28;20048;-91
2021/08/28 10:31:12;;;;;;;1.70;1.25;;;18.10;94.70;;;;;;5097159;28;20047;-91
2021/08/28 10:33:39;;;;;;;2.30;1.70;;;18.10;94.60;;;;;;5080709;28;20066;-86
2021/08/28 10:36:10;;;;;;;1.30;1.10;;;18.20;94.30;;;;;;5089794;28;20501;-87
2021/08/28 10:38:42;;;;;;;1.98;1.40;;;18.30;94.70;;;;;;5094651;28;20063;-87
2021/08/28 10:41:10;;;;;;;1.98;1.70;;;18.50;95.40;;;;;;5092842;28;20062;-88
2021/08/28 10:43:38;;;;;;;1.50;1.23;;;18.70;93.90;;;;;;5091667;28;20097;-91
2021/08/28 10:46:22;;;;;;;1.58;1.48;;;18.70;94.10;;;;;;5106625;28;20043;-91
2021/08/28 10:48:59;;;;;;;1.58;1.10;;;18.80;93.90;;;;;;5120414;28;20124;-91
2021/08/28 10:51:33;;;;;;;1.70;1.27;;;18.80;94.10;;;;;;5116002;28;20063;-89
2021/08/28 10:54:03;;;;;;;1.45;1.35;;;18.90;93.50;;;;;;5100392;28;20633;-90
2021/08/28 10:56:50;;;;;;;1.67;1.48;;;18.80;94.30;;;;;;5121203;28;20128;-92
2021/08/28 10:59:17;;;;;;;7.40;3.90;;;18.90;93.20;;;;;;5119703;28;20028;-89
2021/08/28 11:01:59;;;;;;;46.85;40.55;;;18.90;94.30;;;;;;5106034;28;20036;-90
2021/08/28 11:04:38;;;;;;;3.42;3.08;;;19.00;93.40;;;;;;5102463;28;20398;-89
2021/08/28 11:07:27;;;;;;;1.63;1.30;;;18.80;93.70;;;;;;5099382;28;20046;-89
2021/08/28 11:10:17;;;;;;;1.70;1.33;;;18.70;94.30;;;;;;5109127;28;20044;-90
2021/08/28 11:12:51;;;;;;;2.13;1.70;;;18.70;94.10;;;;;;5118470;28;20039;-89
2021/08/28 11:15:37;;;;;;;2.47;1.75;;;18.60;94.10;;;;;;5116127;28;20059;-90
2021/08/28 11:18:05;;;;;;;1.85;1.45;;;18.50;94.40;;;;;;5101334;28;20040;-91
2021/08/28 11:20:39;;;;;;;2.05;1.55;;;18.50;94.60;;;;;;5100893;28;20036;-92
2021/08/28 11:23:13;;;;;;;2.45;1.10;;;18.50;94.10;;;;;;5100109;28;20036;-88
2021/08/28 11:25:49;;;;;;;2.20;1.67;;;18.50;94.10;;;;;;5111584;28;20012;-88
2021/08/28 11:28:19;;;;;;;1.45;1.23;;;18.50;93.80;;;;;;5127029;28;20035;-91
2021/08/28 11:30:44;;;;;;;4.95;1.55;;;18.50;93.80;;;;;;5120537;28;20035;-91
2021/08/28 11:33:20;;;;;;;3.30;1.40;;;18.60;94.00;;;;;;5119785;28;20131;-89
2021/08/28 11:36:01;;;;;;;1.83;1.20;;;18.70;93.60;;;;;;5118314;28;20084;-90
2021/08/28 11:38:40;;;;;;;1.25;1.00;;;18.70;92.80;;;;;;5099835;28;20032;-90
2021/08/28 11:41:19;;;;;;;1.13;0.93;;;18.70;92.30;;;;;;5109347;28;20028;-91
2021/08/28 11:43:45;;;;;;;0.95;0.80;;;18.70;92.70;;;;;;5126896;28;20038;-91
2021/08/28 11:46:17;;;;;;;1.58;0.77;;;18.80;91.50;;;;;;5128105;28;20044;-90
2021/08/28 11:48:44;;;;;;;1.13;0.70;;;18.90;91.30;;;;;;5120561;28;20035;-90
2021/08/28 11:51:15;;;;;;;1.35;0.70;;;18.90;91.40;;;;;;5120307;28;20032;-91
2021/08/28 11:53:42;;;;;;;0.80;0.80;;;19.00;91.70;;;;;;5097338;28;20047;-91
2021/08/28 11:56:17;;;;;;;1.00;0.80;;;19.10;91.90;;;;;;5099415;28;20051;-90
2021/08/28 11:58:49;;;;;;;0.90;0.75;;;19.20;91.30;;;;;;5099121;28;20054;-89
2021/08/28 12:01:27;;;;;;;;;;;19.30;91.30;;;;;;5099237;28;20032;-89
2021/08/28 12:03:53;;;;;;;0.68;0.50;;;19.30;91.40;;;;;;5099263;28;19908;-91
2021/08/28 12:06:22;;;;;;;0.80;0.60;;;19.40;90.80;;;;;;5099906;28;20298;-90
2021/08/28 12:08:49;;;;;;;0.93;0.50;;;19.50;91.30;;;;;;5099451;28;20471;-92
2021/08/28 12:11:15;;;;;;;2.30;0.60;;;19.50;90.90;;;;;;5106497;28;20069;-92
2021/08/28 12:13:49;;;;;;;1.80;0.65;;;19.50;91.40;;;;;;5107737;28;20044;-91
2021/08/28 12:16:20;;;;;;;0.45;0.40;;;19.70;91.30;;;;;;5107087;28;20032;-92
2021/08/28 12:18:45;;;;;;;0.77;0.70;;;19.80;90.70;;;;;;5101917;28;20127;-91
2021/08/28 12:24:20;;;;;;;0.50;0.43;;;19.90;90.40;;;;;;5109081;28;20346;-93
2021/08/28 12:26:56;;;;;;;1.67;0.60;;;20.10;90.50;;;;;;5101393;28;20101;-93
2021/08/28 12:29:32;;;;;;;3.25;0.68;;;20.30;90.30;;;;;;5100247;28;20123;-92
2021/08/28 12:32:05;;;;;;;0.55;0.40;;;20.50;90.20;;;;;;5099992;28;20032;-92
2021/08/28 12:37:34;;;;;;;0.50;0.50;;;21.00;87.40;;;;;;5105515;28;20105;-92
2021/08/28 12:40:03;;;;;;;0.77;0.50;;;21.20;87.90;;;;;;5106723;28;20028;-93
2021/08/28 12:42:35;;;;;;;0.38;0.38;;;21.30;87.10;;;;;;5099557;28;20039;-92
2021/08/28 12:45:05;;;;;;;1.38;0.50;;;21.30;84.80;;;;;;5100022;28;20028;-93
2021/08/28 12:47:33;;;;;;;1.27;0.50;;;21.40;87.00;;;;;;5108011;28;20059;-92
2021/08/28 12:50:05;;;;;;;1.08;0.68;;;21.40;86.60;;;;;;5135635;28;20039;-92
2021/08/28 12:52:39;;;;;;;0.40;0.38;;;21.60;86.80;;;;;;5125140;28;20040;-91
2021/08/28 12:55:26;;;;;;;0.40;0.40;;;21.60;84.90;;;;;;5123257;28;20036;-92
2021/08/28 12:57:56;;;;;;;0.52;0.50;;;21.70;83.90;;;;;;5104237;28;20040;-92
2021/08/28 13:00:21;;;;;;;0.55;0.50;;;21.60;84.20;;;;;;5102242;28;20032;-93
2021/08/28 13:02:48;;;;;;;0.55;0.50;;;21.60;85.40;;;;;;5102173;28;20051;-93
2021/08/28 13:05:27;;;;;;;0.65;0.50;;;21.60;84.70;;;;;;5102266;28;20043;-92